sensor_id;sensor_type;location;lat;lon;timestamp;temperature;humidity
8736;DHT22;4404;49.308;12.178;2023-05-07T07:10:54;14.20;99.90
8736;DHT22;4404;49.308;12.178;2023-05-07T07:12:56;14.40;99.90
8736;DHT22;4404;49.308;12.178;2023-05-07T07:18:07;14.70;99.90
8736;DHT22;4404;49.308;12.178;2023-05-07T07:20:10;15.50;99.90
8736;DHT22;4404;49.308;12.178;2023-05-07T07:25:58;17.60;99.90
8736;DHT22;4404;49.308;12.178;2023-05-07T07:28:00;16.10;99.90
8736;DHT22;4404;49.308;12.178;2023-05-07T07:30:05;15.80;99.90
8736;DHT22;4404;49.308;12.178;2023-05-07T07:32:08;15.80;99.90
8736;DHT22;4404;49.308;12.178;2023-05-07T07:34:11;15.90;99.90
8736;DHT22;4404;49.308;12.178;2023-05-07T07:36:13;15.90;99.90
8736;DHT22;4404;49.308;12.178;2023-05-07T07:38:15;15.40;99.90
8736;DHT22;4404;49.308;12.178;2023-05-07T07:40:18;16.20;99.90
8736;DHT22;4404;49.308;12.178;2023-05-07T07:42:22;16.10;99.90
8736;DHT22;4404;49.308;12.178;2023-05-07T07:44:24;16.30;99.90
8736;DHT22;4404;49.308;12.178;2023-05-07T07:46:27;16.80;99.90
8736;DHT22;4404;49.308;12.178;2023-05-07T07:48:30;16.60;99.90
8736;DHT22;4404;49.308;12.178;2023-05-07T07:50:33;16.50;99.90
8736;DHT22;4404;49.308;12.178;2023-05-07T07:52:37;16.60;99.90
8736;DHT22;4404;49.308;12.178;2023-05-07T07:54:39;16.90;99.90
8736;DHT22;4404;49.308;12.178;2023-05-07T07:56:41;16.70;99.90
8736;DHT22;4404;49.308;12.178;2023-05-07T07:58:45;17.50;99.90
8736;DHT22;4404;49.308;12.178;2023-05-07T08:00:48;16.80;99.90
8736;DHT22;4404;49.308;12.178;2023-05-07T08:02:50;16.90;99.90
8736;DHT22;4404;49.308;12.178;2023-05-07T08:04:52;17.10;99.90
8736;DHT22;4404;49.308;12.178;2023-05-07T08:06:55;16.00;99.90
8736;DHT22;4404;49.308;12.178;2023-05-07T08:08:58;17.40;99.90
8736;DHT22;4404;49.308;12.178;2023-05-07T08:11:01;17.60;99.90
8736;DHT22;4404;49.308;12.178;2023-05-07T08:13:03;19.20;99.90
8736;DHT22;4404;49.308;12.178;2023-05-07T08:15:10;18.00;99.90
8736;DHT22;4404;49.308;12.178;2023-05-07T08:17:12;18.00;99.90
8736;DHT22;4404;49.308;12.178;2023-05-07T08:19:16;17.70;99.90
8736;DHT22;4404;49.308;12.178;2023-05-07T08:21:18;18.30;99.90
8736;DHT22;4404;49.308;12.178;2023-05-07T08:23:21;18.20;99.90
8736;DHT22;4404;49.308;12.178;2023-05-07T08:25:23;18.60;99.90
8736;DHT22;4404;49.308;12.178;2023-05-07T08:27:26;18.50;99.90
8736;DHT22;4404;49.308;12.178;2023-05-07T08:29:28;18.80;99.90
8736;DHT22;4404;49.308;12.178;2023-05-07T08:31:32;18.70;99.90
8736;DHT22;4404;49.308;12.178;2023-05-07T08:33:35;18.70;99.90
8736;DHT22;4404;49.308;12.178;2023-05-07T08:35:38;18.80;99.90
8736;DHT22;4404;49.308;12.178;2023-05-07T08:37:42;18.80;99.90
8736;DHT22;4404;49.308;12.178;2023-05-07T08:39:44;18.80;99.90
8736;DHT22;4404;49.308;12.178;2023-05-07T08:41:48;18.90;99.90
8736;DHT22;4404;49.308;12.178;2023-05-07T08:43:57;18.90;99.90
8736;DHT22;4404;49.308;12.178;2023-05-07T08:46:01;18.90;99.90
8736;DHT22;4404;49.308;12.178;2023-05-07T08:48:09;21.80;99.90
8736;DHT22;4404;49.308;12.178;2023-05-07T08:50:18;18.90;99.90
8736;DHT22;4404;49.308;12.178;2023-05-07T08:52:22;19.10;99.90
8736;DHT22;4404;49.308;12.178;2023-05-07T08:54:25;19.00;99.90
8736;DHT22;4404;49.308;12.178;2023-05-07T08:56:27;18.80;99.90
8736;DHT22;4404;49.308;12.178;2023-05-07T08:58:30;19.10;99.90
8736;DHT22;4404;49.308;12.178;2023-05-07T09:01:06;18.90;99.90
8736;DHT22;4404;49.308;12.178;2023-05-07T09:03:29;20.50;99.90
8736;DHT22;4404;49.308;12.178;2023-05-07T09:05:49;18.90;99.90
8736;DHT22;4404;49.308;12.178;2023-05-07T09:08:10;19.30;99.90
8736;DHT22;4404;49.308;12.178;2023-05-07T09:10:49;18.90;99.90
8736;DHT22;4404;49.308;12.178;2023-05-07T09:13:13;20.80;99.90
8736;DHT22;4404;49.308;12.178;2023-05-07T09:15:16;20.70;99.90
8736;DHT22;4404;49.308;12.178;2023-05-07T09:17:31;20.40;99.90
8736;DHT22;4404;49.308;12.178;2023-05-07T09:19:52;19.90;99.90
8736;DHT22;4404;49.308;12.178;2023-05-07T09:21:58;19.30;99.90
8736;DHT22;4404;49.308;12.178;2023-05-07T09:24:01;19.50;99.90
8736;DHT22;4404;49.308;12.178;2023-05-07T09:26:03;19.60;99.90
8736;DHT22;4404;49.308;12.178;2023-05-07T09:28:09;19.50;99.90
8736;DHT22;4404;49.308;12.178;2023-05-07T09:30:12;19.60;99.90
8736;DHT22;4404;49.308;12.178;2023-05-07T09:32:14;19.70;99.90
8736;DHT22;4404;49.308;12.178;2023-05-07T09:34:17;19.80;99.90
8736;DHT22;4404;49.308;12.178;2023-05-07T09:36:20;19.80;99.90
8736;DHT22;4404;49.308;12.178;2023-05-07T09:38:23;19.90;99.90
8736;DHT22;4404;49.308;12.178;2023-05-07T09:40:27;19.90;99.90
8736;DHT22;4404;49.308;12.178;2023-05-07T09:42:30;19.90;99.90
8736;DHT22;4404;49.308;12.178;2023-05-07T09:44:33;20.00;99.90
8736;DHT22;4404;49.308;12.178;2023-05-07T09:46:38;20.10;99.90
8736;DHT22;4404;49.308;12.178;2023-05-07T09:48:43;20.10;99.90
8736;DHT22;4404;49.308;12.178;2023-05-07T09:50:49;20.20;99.90
8736;DHT22;4404;49.308;12.178;2023-05-07T09:52:53;20.30;99.90
8736;DHT22;4404;49.308;12.178;2023-05-07T09:54:57;20.40;99.90
8736;DHT22;4404;49.308;12.178;2023-05-07T09:57:02;20.50;99.90
8736;DHT22;4404;49.308;12.178;2023-05-07T09:59:05;20.60;99.90
8736;DHT22;4404;49.308;12.178;2023-05-07T10:01:10;20.70;99.90
8736;DHT22;4404;49.308;12.178;2023-05-07T10:03:14;20.80;99.90
8736;DHT22;4404;49.308;12.178;2023-05-07T10:05:18;20.90;99.90
8736;DHT22;4404;49.308;12.178;2023-05-07T10:07:21;21.00;99.90
8736;DHT22;4404;49.308;12.178;2023-05-07T10:09:25;21.10;99.90
8736;DHT22;4404;49.308;12.178;2023-05-07T10:11:28;21.30;99.90
8736;DHT22;4404;49.308;12.178;2023-05-07T10:13:31;21.40;99.90
8736;DHT22;4404;49.308;12.178;2023-05-07T10:15:36;21.40;99.90
8736;DHT22;4404;49.308;12.178;2023-05-07T10:17:39;21.40;99.90
8736;DHT22;4404;49.308;12.178;2023-05-07T10:19:43;21.50;99.90
8736;DHT22;4404;49.308;12.178;2023-05-07T10:21:54;21.60;99.90
8736;DHT22;4404;49.308;12.178;2023-05-07T10:24:10;21.70;99.90
8736;DHT22;4404;49.308;12.178;2023-05-07T10:26:20;21.70;99.90
8736;DHT22;4404;49.308;12.178;2023-05-07T10:28:25;22.30;99.90
8736;DHT22;4404;49.308;12.178;2023-05-07T10:30:34;21.80;99.90
8736;DHT22;4404;49.308;12.178;2023-05-07T10:32:53;21.90;99.90
8736;DHT22;4404;49.308;12.178;2023-05-07T10:35:00;21.90;99.90
8736;DHT22;4404;49.308;12.178;2023-05-07T10:37:08;22.00;99.90
8736;DHT22;4404;49.308;12.178;2023-05-07T10:39:19;22.40;99.90
8736;DHT22;4404;49.308;12.178;2023-05-07T10:41:24;22.40;99.90
8736;DHT22;4404;49.308;12.178;2023-05-07T10:43:39;21.90;99.90
8736;DHT22;4404;49.308;12.178;2023-05-07T10:45:42;21.90;99.90
8736;DHT22;4404;49.308;12.178;2023-05-07T10:48:06;21.90;99.90
8736;DHT22;4404;49.308;12.178;2023-05-07T10:50:22;21.70;99.90
8736;DHT22;4404;49.308;12.178;2023-05-07T10:52:25;21.70;99.90
8736;DHT22;4404;49.308;12.178;2023-05-07T10:54:27;21.80;99.90
8736;DHT22;4404;49.308;12.178;2023-05-07T10:56:31;21.80;99.90
8736;DHT22;4404;49.308;12.178;2023-05-07T10:58:33;21.90;99.90
8736;DHT22;4404;49.308;12.178;2023-05-07T11:00:43;22.00;99.90
8736;DHT22;4404;49.308;12.178;2023-05-07T11:03:04;21.90;99.90
8736;DHT22;4404;49.308;12.178;2023-05-07T11:05:19;22.00;99.90
8736;DHT22;4404;49.308;12.178;2023-05-07T11:07:27;22.00;99.90
8736;DHT22;4404;49.308;12.178;2023-05-07T11:09:54;22.10;99.90
8736;DHT22;4404;49.308;12.178;2023-05-07T11:12:01;22.20;99.90
8736;DHT22;4404;49.308;12.178;2023-05-07T11:14:07;22.30;99.90
8736;DHT22;4404;49.308;12.178;2023-05-07T11:16:19;22.30;99.90
8736;DHT22;4404;49.308;12.178;2023-05-07T11:18:23;22.30;99.90
8736;DHT22;4404;49.308;12.178;2023-05-07T11:20:50;22.40;99.90
8736;DHT22;4404;49.308;12.178;2023-05-07T11:22:53;22.40;99.90
8736;DHT22;4404;49.308;12.178;2023-05-07T11:24:59;22.50;99.90
8736;DHT22;4404;49.308;12.178;2023-05-07T11:27:03;22.50;99.90
8736;DHT22;4404;49.308;12.178;2023-05-07T11:29:11;22.50;99.90
8736;DHT22;4404;49.308;12.178;2023-05-07T11:31:13;22.50;99.90
8736;DHT22;4404;49.308;12.178;2023-05-07T11:33:17;22.50;99.90
8736;DHT22;4404;49.308;12.178;2023-05-07T11:35:23;22.60;99.90
8736;DHT22;4404;49.308;12.178;2023-05-07T11:37:26;22.60;99.90
8736;DHT22;4404;49.308;12.178;2023-05-07T11:39:31;22.50;99.90
8736;DHT22;4404;49.308;12.178;2023-05-07T11:41:35;22.50;99.90
8736;DHT22;4404;49.308;12.178;2023-05-07T11:43:54;22.70;99.90
8736;DHT22;4404;49.308;12.178;2023-05-07T11:46:05;22.80;99.90
8736;DHT22;4404;49.308;12.178;2023-05-07T11:48:09;23.00;99.90
8736;DHT22;4404;49.308;12.178;2023-05-07T11:50:11;23.00;99.90
8736;DHT22;4404;49.308;12.178;2023-05-07T11:52:19;23.00;99.90
8736;DHT22;4404;49.308;12.178;2023-05-07T11:54:22;23.00;99.90
8736;DHT22;4404;49.308;12.178;2023-05-07T11:56:24;23.00;99.90
8736;DHT22;4404;49.308;12.178;2023-05-07T11:58:26;22.90;99.90
8736;DHT22;4404;49.308;12.178;2023-05-07T12:00:30;22.90;99.90
8736;DHT22;4404;49.308;12.178;2023-05-07T12:02:32;22.90;99.90
8736;DHT22;4404;49.308;12.178;2023-05-07T12:04:35;22.90;99.90
8736;DHT22;4404;49.308;12.178;2023-05-07T12:06:37;22.80;99.90
8736;DHT22;4404;49.308;12.178;2023-05-07T12:08:41;22.80;99.90
8736;DHT22;4404;49.308;12.178;2023-05-07T12:10:44;22.80;99.90
8736;DHT22;4404;49.308;12.178;2023-05-07T12:12:48;23.00;99.90
8736;DHT22;4404;49.308;12.178;2023-05-07T12:14:50;23.20;99.90
8736;DHT22;4404;49.308;12.178;2023-05-07T12:16:54;23.30;99.90
8736;DHT22;4404;49.308;12.178;2023-05-07T12:18:56;23.40;99.90
8736;DHT22;4404;49.308;12.178;2023-05-07T12:20:59;23.50;99.90
8736;DHT22;4404;49.308;12.178;2023-05-07T12:23:02;23.70;99.90
8736;DHT22;4404;49.308;12.178;2023-05-07T12:25:05;23.80;99.80
8736;DHT22;4404;49.308;12.178;2023-05-07T12:27:09;23.80;99.90
8736;DHT22;4404;49.308;12.178;2023-05-07T12:29:14;23.90;99.80
8736;DHT22;4404;49.308;12.178;2023-05-07T12:31:17;24.00;99.60
8736;DHT22;4404;49.308;12.178;2023-05-07T12:33:26;24.10;99.30
8736;DHT22;4404;49.308;12.178;2023-05-07T12:35:29;24.10;97.60
8736;DHT22;4404;49.308;12.178;2023-05-07T12:37:31;24.10;97.00
8736;DHT22;4404;49.308;12.178;2023-05-07T12:39:34;24.20;97.30
8736;DHT22;4404;49.308;12.178;2023-05-07T12:41:51;24.20;96.90
8736;DHT22;4404;49.308;12.178;2023-05-07T12:43:56;24.30;95.80
8736;DHT22;4404;49.308;12.178;2023-05-07T12:46:01;24.30;95.80
8736;DHT22;4404;49.308;12.178;2023-05-07T12:48:05;24.30;96.10
8736;DHT22;4404;49.308;12.178;2023-05-07T12:50:08;24.30;96.50
8736;DHT22;4404;49.308;12.178;2023-05-07T12:52:11;24.40;93.90
8736;DHT22;4404;49.308;12.178;2023-05-07T12:54:13;24.40;93.80
8736;DHT22;4404;49.308;12.178;2023-05-07T12:56:16;24.40;93.80
8736;DHT22;4404;49.308;12.178;2023-05-07T12:58:19;24.40;95.40
8736;DHT22;4404;49.308;12.178;2023-05-07T13:00:35;24.40;93.60
8736;DHT22;4404;49.308;12.178;2023-05-07T13:02:39;24.40;94.00
8736;DHT22;4404;49.308;12.178;2023-05-07T13:04:42;24.50;93.40
8736;DHT22;4404;49.308;12.178;2023-05-07T13:06:45;24.50;92.20
8736;DHT22;4404;49.308;12.178;2023-05-07T13:08:47;24.60;92.40
8736;DHT22;4404;49.308;12.178;2023-05-07T13:10:50;24.70;91.80
8736;DHT22;4404;49.308;12.178;2023-05-07T13:12:57;24.70;90.60
8736;DHT22;4404;49.308;12.178;2023-05-07T13:15:00;24.70;91.70
8736;DHT22;4404;49.308;12.178;2023-05-07T13:17:02;24.70;92.30
8736;DHT22;4404;49.308;12.178;2023-05-07T13:19:04;24.80;91.90
8736;DHT22;4404;49.308;12.178;2023-05-07T13:21:06;24.90;92.10
8736;DHT22;4404;49.308;12.178;2023-05-07T13:23:10;25.00;90.90
8736;DHT22;4404;49.308;12.178;2023-05-07T13:25:12;25.00;93.00
8736;DHT22;4404;49.308;12.178;2023-05-07T13:27:14;25.10;92.10
8736;DHT22;4404;49.308;12.178;2023-05-07T13:29:19;25.20;91.20
8736;DHT22;4404;49.308;12.178;2023-05-07T13:31:21;25.20;91.00
8736;DHT22;4404;49.308;12.178;2023-05-07T13:33:24;25.20;90.80
8736;DHT22;4404;49.308;12.178;2023-05-07T13:35:26;25.10;87.90
8736;DHT22;4404;49.308;12.178;2023-05-07T13:37:28;25.10;89.90
8736;DHT22;4404;49.308;12.178;2023-05-07T13:39:32;25.10;90.20
8736;DHT22;4404;49.308;12.178;2023-05-07T13:41:34;25.10;90.20
8736;DHT22;4404;49.308;12.178;2023-05-07T13:43:36;25.10;89.60
8736;DHT22;4404;49.308;12.178;2023-05-07T13:45:38;25.10;88.70
8736;DHT22;4404;49.308;12.178;2023-05-07T13:47:40;25.10;88.20
8736;DHT22;4404;49.308;12.178;2023-05-07T13:49:42;25.10;89.70
8736;DHT22;4404;49.308;12.178;2023-05-07T13:51:44;25.10;90.10
8736;DHT22;4404;49.308;12.178;2023-05-07T13:53:47;25.10;88.00
8736;DHT22;4404;49.308;12.178;2023-05-07T13:55:50;25.10;87.40
8736;DHT22;4404;49.308;12.178;2023-05-07T13:57:56;25.10;86.30
8736;DHT22;4404;49.308;12.178;2023-05-07T13:59:58;25.20;88.50
8736;DHT22;4404;49.308;12.178;2023-05-07T14:02:00;25.10;85.90
8736;DHT22;4404;49.308;12.178;2023-05-07T14:04:02;25.10;87.60
8736;DHT22;4404;49.308;12.178;2023-05-07T14:06:05;25.00;86.80
8736;DHT22;4404;49.308;12.178;2023-05-07T14:08:07;24.90;87.70
8736;DHT22;4404;49.308;12.178;2023-05-07T14:10:10;24.90;86.00
8736;DHT22;4404;49.308;12.178;2023-05-07T14:12:14;24.80;88.60
8736;DHT22;4404;49.308;12.178;2023-05-07T14:14:19;24.80;87.10
8736;DHT22;4404;49.308;12.178;2023-05-07T14:16:21;24.90;86.60
8736;DHT22;4404;49.308;12.178;2023-05-07T14:18:23;24.90;85.40
8736;DHT22;4404;49.308;12.178;2023-05-07T14:20:25;24.90;83.80
8736;DHT22;4404;49.308;12.178;2023-05-07T14:22:28;24.80;86.70
8736;DHT22;4404;49.308;12.178;2023-05-07T14:24:30;24.80;87.20
8736;DHT22;4404;49.308;12.178;2023-05-07T14:26:32;24.70;85.10
8736;DHT22;4404;49.308;12.178;2023-05-07T14:28:36;24.70;84.50
8736;DHT22;4404;49.308;12.178;2023-05-07T14:30:39;24.80;84.40
8736;DHT22;4404;49.308;12.178;2023-05-07T14:32:42;24.70;83.80
8736;DHT22;4404;49.308;12.178;2023-05-07T14:34:45;24.70;83.20
8736;DHT22;4404;49.308;12.178;2023-05-07T14:36:47;24.70;86.20
8736;DHT22;4404;49.308;12.178;2023-05-07T14:38:52;24.70;85.50
8736;DHT22;4404;49.308;12.178;2023-05-07T14:40:55;24.70;84.50
8736;DHT22;4404;49.308;12.178;2023-05-07T14:42:57;24.60;85.00
8736;DHT22;4404;49.308;12.178;2023-05-07T14:45:04;24.50;84.80
8736;DHT22;4404;49.308;12.178;2023-05-07T14:47:10;24.50;85.60
8736;DHT22;4404;49.308;12.178;2023-05-07T14:49:13;24.50;84.60
8736;DHT22;4404;49.308;12.178;2023-05-07T14:51:17;24.40;84.30
8736;DHT22;4404;49.308;12.178;2023-05-07T14:53:21;24.40;84.00
8736;DHT22;4404;49.308;12.178;2023-05-07T14:55:23;24.30;84.20
8736;DHT22;4404;49.308;12.178;2023-05-07T14:57:25;24.20;86.20
8736;DHT22;4404;49.308;12.178;2023-05-07T14:59:30;24.20;84.00
8736;DHT22;4404;49.308;12.178;2023-05-07T15:01:36;24.30;84.50
8736;DHT22;4404;49.308;12.178;2023-05-07T15:03:40;24.20;85.10
8736;DHT22;4404;49.308;12.178;2023-05-07T15:05:42;24.30;86.20
8736;DHT22;4404;49.308;12.178;2023-05-07T15:07:45;24.30;85.00
8736;DHT22;4404;49.308;12.178;2023-05-07T15:09:47;24.20;82.50
8736;DHT22;4404;49.308;12.178;2023-05-07T15:11:49;24.10;82.30
8736;DHT22;4404;49.308;12.178;2023-05-07T15:13:51;24.10;83.10
8736;DHT22;4404;49.308;12.178;2023-05-07T15:15:53;24.10;82.50
8736;DHT22;4404;49.308;12.178;2023-05-07T15:17:57;24.00;83.40
8736;DHT22;4404;49.308;12.178;2023-05-07T15:20:00;23.90;85.70
8736;DHT22;4404;49.308;12.178;2023-05-07T15:22:05;23.90;86.10
8736;DHT22;4404;49.308;12.178;2023-05-07T15:24:07;23.90;85.00
8736;DHT22;4404;49.308;12.178;2023-05-07T15:26:10;23.90;82.80
8736;DHT22;4404;49.308;12.178;2023-05-07T15:28:12;23.80;83.90
8736;DHT22;4404;49.308;12.178;2023-05-07T15:30:14;23.70;82.80
8736;DHT22;4404;49.308;12.178;2023-05-07T15:32:17;23.60;84.90
8736;DHT22;4404;49.308;12.178;2023-05-07T15:34:20;23.60;86.00
8736;DHT22;4404;49.308;12.178;2023-05-07T15:36:24;23.60;86.20
8736;DHT22;4404;49.308;12.178;2023-05-07T15:38:27;23.60;86.10
8736;DHT22;4404;49.308;12.178;2023-05-07T15:40:30;23.50;88.10
8736;DHT22;4404;49.308;12.178;2023-05-07T15:42:33;23.50;87.50
8736;DHT22;4404;49.308;12.178;2023-05-07T15:44:35;23.50;88.10
8736;DHT22;4404;49.308;12.178;2023-05-07T15:46:37;23.50;85.90
8736;DHT22;4404;49.308;12.178;2023-05-07T15:48:45;23.50;87.60
8736;DHT22;4404;49.308;12.178;2023-05-07T15:50:49;23.40;86.00
8736;DHT22;4404;49.308;12.178;2023-05-07T15:52:51;23.40;88.10
8736;DHT22;4404;49.308;12.178;2023-05-07T15:54:53;23.30;86.80
8736;DHT22;4404;49.308;12.178;2023-05-07T15:56:56;23.40;87.50
8736;DHT22;4404;49.308;12.178;2023-05-07T15:58:58;23.20;86.50
8736;DHT22;4404;49.308;12.178;2023-05-07T16:01:01;23.10;88.60
8736;DHT22;4404;49.308;12.178;2023-05-07T16:03:04;23.00;85.10
8736;DHT22;4404;49.308;12.178;2023-05-07T16:05:07;23.10;86.10
8736;DHT22;4404;49.308;12.178;2023-05-07T16:07:11;22.70;84.70
8736;DHT22;4404;49.308;12.178;2023-05-07T16:11:42;23.10;89.10
8736;DHT22;4404;49.308;12.178;2023-05-07T16:13:45;22.50;88.50
8736;DHT22;4404;49.308;12.178;2023-05-07T16:15:47;22.40;88.50
8736;DHT22;4404;49.308;12.178;2023-05-07T16:17:49;22.40;88.00
8736;DHT22;4404;49.308;12.178;2023-05-07T16:19:57;22.30;89.10
8736;DHT22;4404;49.308;12.178;2023-05-07T16:21:59;22.30;89.00
8736;DHT22;4404;49.308;12.178;2023-05-07T16:24:03;22.30;90.10
8736;DHT22;4404;49.308;12.178;2023-05-07T16:26:05;22.30;88.90
8736;DHT22;4404;49.308;12.178;2023-05-07T16:28:08;22.20;90.00
8736;DHT22;4404;49.308;12.178;2023-05-07T16:30:10;22.20;90.50
8736;DHT22;4404;49.308;12.178;2023-05-07T16:32:12;22.10;89.20
8736;DHT22;4404;49.308;12.178;2023-05-07T16:34:15;22.10;88.70
8736;DHT22;4404;49.308;12.178;2023-05-07T16:36:22;22.00;88.60
8736;DHT22;4404;49.308;12.178;2023-05-07T16:38:24;22.00;91.50
8736;DHT22;4404;49.308;12.178;2023-05-07T16:40:29;22.90;92.00
8736;DHT22;4404;49.308;12.178;2023-05-07T16:42:31;21.80;90.10
8736;DHT22;4404;49.308;12.178;2023-05-07T16:44:34;21.70;90.10
8736;DHT22;4404;49.308;12.178;2023-05-07T16:46:36;21.60;90.60
8736;DHT22;4404;49.308;12.178;2023-05-07T16:48:38;21.50;90.20
8736;DHT22;4404;49.308;12.178;2023-05-07T16:50:41;21.40;89.40
8736;DHT22;4404;49.308;12.178;2023-05-07T16:52:43;21.30;90.40
8736;DHT22;4404;49.308;12.178;2023-05-07T16:54:46;21.20;90.70
8736;DHT22;4404;49.308;12.178;2023-05-07T16:56:49;21.10;91.50
8736;DHT22;4404;49.308;12.178;2023-05-07T16:58:52;21.00;91.80
8736;DHT22;4404;49.308;12.178;2023-05-07T17:00:54;20.90;91.50
8736;DHT22;4404;49.308;12.178;2023-05-07T17:02:56;20.90;91.80
8736;DHT22;4404;49.308;12.178;2023-05-07T17:04:58;20.90;91.60
8736;DHT22;4404;49.308;12.178;2023-05-07T17:07:01;20.90;92.00
8736;DHT22;4404;49.308;12.178;2023-05-07T17:09:03;20.80;92.20
8736;DHT22;4404;49.308;12.178;2023-05-07T17:11:05;20.70;92.80
8736;DHT22;4404;49.308;12.178;2023-05-07T17:13:09;20.70;93.00
8736;DHT22;4404;49.308;12.178;2023-05-07T17:15:12;20.60;93.10
8736;DHT22;4404;49.308;12.178;2023-05-07T17:17:21;20.70;92.80
8736;DHT22;4404;49.308;12.178;2023-05-07T17:19:27;20.60;93.00
8736;DHT22;4404;49.308;12.178;2023-05-07T17:21:37;20.60;93.40
8736;DHT22;4404;49.308;12.178;2023-05-07T17:23:40;20.50;92.80
8736;DHT22;4404;49.308;12.178;2023-05-07T17:25:42;20.40;93.40
8736;DHT22;4404;49.308;12.178;2023-05-07T17:27:45;20.30;93.00
8736;DHT22;4404;49.308;12.178;2023-05-07T17:29:48;20.20;93.90
8736;DHT22;4404;49.308;12.178;2023-05-07T17:31:50;20.10;94.20
8736;DHT22;4404;49.308;12.178;2023-05-07T17:33:52;20.10;94.40
8736;DHT22;4404;49.308;12.178;2023-05-07T17:35:54;20.00;94.00
8736;DHT22;4404;49.308;12.178;2023-05-07T17:37:57;20.00;94.10
8736;DHT22;4404;49.308;12.178;2023-05-07T17:39:59;20.00;94.30
8736;DHT22;4404;49.308;12.178;2023-05-07T17:42:02;19.90;94.30
8736;DHT22;4404;49.308;12.178;2023-05-07T17:44:04;19.90;94.80
8736;DHT22;4404;49.308;12.178;2023-05-07T17:46:08;19.80;94.50
8736;DHT22;4404;49.308;12.178;2023-05-07T17:48:10;19.80;94.40
8736;DHT22;4404;49.308;12.178;2023-05-07T17:50:13;19.60;94.60
8736;DHT22;4404;49.308;12.178;2023-05-07T17:52:15;19.50;94.50
8736;DHT22;4404;49.308;12.178;2023-05-07T17:54:17;19.50;95.00
8736;DHT22;4404;49.308;12.178;2023-05-07T17:56:19;19.50;94.90
8736;DHT22;4404;49.308;12.178;2023-05-07T17:58:22;19.40;95.00
8736;DHT22;4404;49.308;12.178;2023-05-07T18:00:25;19.40;94.90
8736;DHT22;4404;49.308;12.178;2023-05-07T18:02:28;19.30;95.00
8736;DHT22;4404;49.308;12.178;2023-05-07T18:04:31;19.30;95.50
8736;DHT22;4404;49.308;12.178;2023-05-07T18:06:33;19.20;96.00
8736;DHT22;4404;49.308;12.178;2023-05-07T18:08:35;19.10;96.00
8736;DHT22;4404;49.308;12.178;2023-05-07T18:10:37;18.90;96.20
